createdAt,value
2018-10-16T00:00:14.355Z,96536.77
2018-10-16T00:02:41.961Z,96535.93
2018-10-16T00:05:09.274Z,96532.80
2018-10-16T00:07:36.805Z,96532.63
2018-10-16T00:10:04.671Z,96529.11
2018-10-16T00:12:32.056Z,96532.86
2018-10-16T00:14:59.427Z,96534.84
2018-10-16T00:17:26.699Z,96540.30
2018-10-16T00:19:54.008Z,96534.59
2018-10-16T00:22:21.278Z,96538.05
2018-10-16T00:24:48.851Z,96539.66
2018-10-16T00:27:16.203Z,96541.64
2018-10-16T00:29:43.553Z,96549.70
2018-10-16T00:32:10.881Z,96546.83
2018-10-16T00:34:38.196Z,96546.78
2018-10-16T00:37:05.500Z,96547.81
2018-10-16T00:39:32.781Z,96549.70
2018-10-16T00:42:00.096Z,96546.34
2018-10-16T00:44:27.479Z,96547.41
2018-10-16T00:46:54.832Z,96541.88
2018-10-16T00:49:22.145Z,96546.66
2018-10-16T00:51:49.420Z,96520.22
2018-10-16T00:54:16.678Z,96543.59
2018-10-16T00:56:44.043Z,96542.50
2018-10-16T00:59:11.288Z,96544.17
2018-10-16T01:01:38.705Z,96545.30
2018-10-16T01:04:06.949Z,96551.28
2018-10-16T01:06:34.853Z,96547.91
2018-10-16T01:09:02.256Z,96552.23
2018-10-16T01:11:29.617Z,96554.74
2018-10-16T01:13:57.566Z,96556.98
2018-10-16T01:16:24.904Z,96555.95
2018-10-16T01:18:52.410Z,96557.80
2018-10-16T01:21:20.282Z,96558.38
2018-10-16T01:23:47.649Z,96559.33
2018-10-16T01:26:15.020Z,96561.36
2018-10-16T01:28:42.517Z,96571.64
2018-10-16T01:31:09.822Z,96566.30
2018-10-16T01:33:37.778Z,96562.64
2018-10-16T01:37:30.327Z,96559.19
2018-10-16T01:39:57.575Z,96575.55
2018-10-16T01:42:25.026Z,96567.37
2018-10-16T01:44:52.426Z,96566.64
2018-10-16T01:47:19.797Z,96564.83
2018-10-16T01:49:47.112Z,96560.65
2018-10-16T01:52:14.728Z,96564.34
2018-10-16T01:54:41.969Z,96573.10
2018-10-16T01:57:09.251Z,96566.86
2018-10-16T01:59:36.595Z,96571.34
2018-10-16T02:02:04.603Z,96571.47
2018-10-16T02:04:31.845Z,96569.59
2018-10-16T02:06:59.258Z,96573.77
2018-10-16T02:09:26.573Z,96569.95
2018-10-16T02:11:53.896Z,96571.16
2018-10-16T02:14:21.204Z,96569.67
2018-10-16T02:16:48.470Z,96573.83
2018-10-16T02:19:15.748Z,96573.48
2018-10-16T02:21:43.044Z,96580.02
2018-10-16T02:24:10.423Z,96578.56
2018-10-16T02:26:37.663Z,96581.26
2018-10-16T02:29:05.370Z,96582.84
2018-10-16T02:31:32.816Z,96586.48
2018-10-16T02:34:00.115Z,96581.58
2018-10-16T02:36:27.464Z,96582.32
2018-10-16T02:38:54.780Z,96590.70
2018-10-16T02:41:22.033Z,96588.67
2018-10-16T02:43:49.302Z,96589.11
2018-10-16T02:46:16.610Z,96588.27
2018-10-16T02:48:43.937Z,96597.23
2018-10-16T02:51:11.216Z,96600.13
2018-10-16T02:53:38.729Z,96600.58
2018-10-16T02:56:06.144Z,96597.61
2018-10-16T02:58:33.400Z,96605.41
2018-10-16T03:01:00.900Z,96608.09
2018-10-16T03:03:34.222Z,96606.70
2018-10-16T03:06:01.514Z,96610.53
2018-10-16T03:08:28.847Z,96618.06
2018-10-16T03:10:56.162Z,96622.70
2018-10-16T03:13:23.585Z,96613.59
2018-10-16T03:15:50.968Z,96621.23
2018-10-16T03:18:18.294Z,96624.37
2018-10-16T03:20:45.699Z,96626.44
2018-10-16T03:23:12.977Z,96625.67
2018-10-16T03:25:40.273Z,96627.17
2018-10-16T03:28:07.583Z,96628.48
2018-10-16T03:30:34.957Z,96624.66
2018-10-16T03:33:02.230Z,96625.14
2018-10-16T03:35:29.481Z,96623.27
2018-10-16T03:37:56.807Z,96631.28
2018-10-16T03:40:24.107Z,96629.05
2018-10-16T03:42:51.472Z,96635.92
2018-10-16T03:45:18.753Z,96635.19
2018-10-16T03:47:46.182Z,96633.88
2018-10-16T03:50:13.555Z,96638.71
2018-10-16T03:52:40.827Z,96635.09
2018-10-16T03:55:08.172Z,96640.54
2018-10-16T03:57:35.465Z,96639.23
2018-10-16T04:00:02.825Z,96642.41
2018-10-16T04:02:30.216Z,96645.50
2018-10-16T04:04:57.500Z,96645.02
2018-10-16T04:07:24.932Z,96641.31
2018-10-16T04:09:52.366Z,96650.58
2018-10-16T04:12:19.645Z,96646.50
2018-10-16T04:14:46.960Z,96645.95
2018-10-16T04:17:14.301Z,96648.47
2018-10-16T04:19:41.524Z,96653.17
2018-10-16T04:22:08.875Z,96652.89
2018-10-16T04:24:36.202Z,96652.72
2018-10-16T04:27:03.668Z,96660.02
2018-10-16T04:29:30.957Z,96660.55
2018-10-16T04:31:58.291Z,96663.34
2018-10-16T04:34:26.262Z,96656.13
2018-10-16T04:36:53.566Z,96657.42
2018-10-16T04:39:20.814Z,96659.12
2018-10-16T04:41:48.121Z,96658.52
2018-10-16T04:44:15.395Z,96659.08
2018-10-16T04:46:42.710Z,96662.41
2018-10-16T04:49:09.999Z,96663.61
2018-10-16T04:51:37.407Z,96665.27
2018-10-16T04:54:04.766Z,96665.42
2018-10-16T04:56:32.203Z,96665.54
2018-10-16T04:58:59.658Z,96670.72
2018-10-16T05:01:26.980Z,96672.36
2018-10-16T05:03:54.354Z,96671.94
2018-10-16T05:06:21.658Z,96676.87
2018-10-16T05:08:48.924Z,96675.98
2018-10-16T05:11:16.255Z,96679.41
2018-10-16T05:13:43.518Z,96673.52
2018-10-16T05:16:10.912Z,96675.95
2018-10-16T05:18:38.436Z,96674.84
2018-10-16T05:21:05.713Z,96676.26
2018-10-16T05:23:33.018Z,96677.30
2018-10-16T05:26:00.277Z,96673.03
2018-10-16T05:28:27.603Z,96682.48
2018-10-16T05:30:54.893Z,96680.45
2018-10-16T05:33:22.227Z,96672.77
2018-10-16T05:35:49.474Z,96677.14
2018-10-16T05:38:16.758Z,96678.55
2018-10-16T05:40:44.071Z,96674.96
2018-10-16T05:43:11.313Z,96684.09
2018-10-16T05:45:41.041Z,96679.86
2018-10-16T05:48:08.426Z,96691.17
2018-10-16T05:50:35.795Z,96685.83
2018-10-16T05:53:03.181Z,96686.38
2018-10-16T05:55:30.483Z,96687.54
2018-10-16T05:57:57.809Z,96688.05
2018-10-16T06:00:45.423Z,96689.91
2018-10-16T06:03:12.800Z,96698.19
2018-10-16T06:05:40.133Z,96700.48
2018-10-16T06:08:07.599Z,96697.89
2018-10-16T06:10:35.237Z,96695.73
2018-10-16T06:13:02.938Z,96709.02
2018-10-16T06:15:30.232Z,96701.59
2018-10-16T06:17:57.553Z,96709.36
2018-10-16T06:20:26.166Z,96712.47
2018-10-16T06:23:06.089Z,96718.37
2018-10-16T06:25:33.714Z,96720.15
2018-10-16T06:28:11.337Z,96719.25
2018-10-16T06:30:38.715Z,96719.35
2018-10-16T06:33:06.079Z,96725.38
2018-10-16T06:35:33.456Z,96720.05
2018-10-16T06:38:00.695Z,96727.16
2018-10-16T06:40:28.042Z,96730.02
2018-10-16T06:42:55.250Z,96727.09
2018-10-16T06:45:22.555Z,96720.09
2018-10-16T06:47:49.965Z,96728.39
2018-10-16T06:50:17.260Z,96727.03
2018-10-16T06:52:44.776Z,96725.40
2018-10-16T06:55:12.156Z,96730.55
2018-10-16T06:57:39.390Z,96715.19
2018-10-16T07:00:07.331Z,96724.16
2018-10-16T07:02:34.640Z,96721.16
2018-10-16T07:05:01.968Z,96723.89
2018-10-16T07:07:29.281Z,96731.37
2018-10-16T07:09:56.651Z,96730.13
2018-10-16T07:12:23.888Z,96731.76
2018-10-16T07:14:51.215Z,96732.23
2018-10-16T07:17:18.440Z,96743.86
2018-10-16T07:19:45.761Z,96739.79
2018-10-16T07:22:13.143Z,96742.64
2018-10-16T07:24:40.517Z,96741.92
2018-10-16T07:27:07.808Z,96739.42
2018-10-16T07:29:35.350Z,96738.23
2018-10-16T07:32:03.248Z,96742.41
2018-10-16T07:34:30.525Z,96738.13
2018-10-16T07:36:58.060Z,96743.13
2018-10-16T07:39:25.295Z,96743.53
2018-10-16T07:41:52.546Z,96746.80
2018-10-16T07:44:19.775Z,96752.80
2018-10-16T07:46:47.379Z,96754.86
2018-10-16T07:49:14.724Z,96752.80
2018-10-16T07:51:41.994Z,96747.97
2018-10-16T07:54:09.191Z,96754.69
2018-10-16T07:56:36.456Z,96752.36
2018-10-16T07:59:03.850Z,96741.13
2018-10-16T08:01:31.094Z,96742.63
2018-10-16T08:03:58.429Z,96746.48
2018-10-16T08:06:25.720Z,96749.29
2018-10-16T08:08:53.039Z,96747.48
2018-10-16T08:11:20.394Z,96746.53
2018-10-16T08:13:47.660Z,96747.41
2018-10-16T08:16:15.010Z,96750.31
2018-10-16T08:18:42.349Z,96750.48
2018-10-16T08:21:09.608Z,96748.00
2018-10-16T08:23:36.843Z,96737.20
2018-10-16T08:26:05.428Z,96735.16
2018-10-16T08:28:32.769Z,96737.70
2018-10-16T08:31:00.149Z,96739.69
2018-10-16T08:33:27.471Z,96739.81
2018-10-16T08:35:54.807Z,96741.81
2018-10-16T08:38:50.484Z,96742.59
2018-10-16T08:41:17.816Z,96742.83
2018-10-16T08:43:56.736Z,96739.79
2018-10-16T08:46:35.621Z,96739.18
2018-10-16T08:49:14.725Z,96710.11
2018-10-16T08:51:52.349Z,96746.37
2018-10-16T08:54:19.864Z,96743.08
2018-10-16T08:56:47.256Z,96747.02
2018-10-16T08:59:14.564Z,96740.19
2018-10-16T09:01:41.843Z,96743.58
2018-10-16T09:04:09.238Z,96742.96
2018-10-16T09:06:36.668Z,96746.68
2018-10-16T09:09:08.150Z,96742.53
2018-10-16T09:11:35.497Z,96739.44
2018-10-16T09:14:02.964Z,96741.78
2018-10-16T09:16:30.209Z,96743.33
2018-10-16T09:18:57.560Z,96737.36
2018-10-16T09:21:24.887Z,96744.77
2018-10-16T09:23:52.215Z,96744.05
2018-10-16T09:26:19.505Z,96740.13
2018-10-16T09:28:47.326Z,96743.64
2018-10-16T09:31:14.614Z,96741.27
2018-10-16T09:33:41.941Z,96738.78
2018-10-16T09:36:09.502Z,96742.63
2018-10-16T09:38:37.153Z,96744.38
2018-10-16T09:41:04.748Z,96745.81
2018-10-16T09:43:32.175Z,96741.48
2018-10-16T09:45:59.480Z,96742.28
2018-10-16T09:48:26.730Z,96737.56
2018-10-16T09:50:54.102Z,96737.80
2018-10-16T09:53:21.402Z,96739.11
2018-10-16T09:55:48.743Z,96740.10
2018-10-16T09:58:16.083Z,96732.04
2018-10-16T10:00:49.004Z,96735.98
2018-10-16T10:03:16.349Z,96743.09
2018-10-16T10:05:43.637Z,96739.06
2018-10-16T10:08:11.919Z,96743.03
2018-10-16T10:10:39.243Z,96742.79
2018-10-16T10:13:06.704Z,96733.44
2018-10-16T10:15:34.034Z,96740.36
2018-10-16T10:18:02.251Z,96738.59
2018-10-16T10:20:30.187Z,96739.54
2018-10-16T10:22:57.458Z,96735.09
2018-10-16T10:25:24.954Z,96733.77
2018-10-16T10:27:52.112Z,96728.59
2018-10-16T10:30:19.383Z,96722.34
2018-10-16T10:32:46.705Z,96719.09
2018-10-16T10:35:14.568Z,96717.63
2018-10-16T10:37:42.138Z,96712.59
2018-10-16T10:40:09.575Z,96720.83
2018-10-16T10:42:36.898Z,96720.30
2018-10-16T10:46:28.649Z,96697.95
2018-10-16T10:48:56.194Z,96718.20
2018-10-16T10:51:23.902Z,96710.00
2018-10-16T10:53:51.005Z,96708.87
2018-10-16T10:56:18.434Z,96710.55
2018-10-16T10:58:45.773Z,96707.64
2018-10-16T11:01:13.100Z,96704.16
2018-10-16T11:03:40.616Z,96708.14
2018-10-16T11:06:07.751Z,96706.77
2018-10-16T11:09:06.500Z,96709.80
2018-10-16T11:11:33.864Z,96699.24
2018-10-16T11:14:01.194Z,96700.27
2018-10-16T11:16:29.111Z,96702.72
2018-10-16T11:18:56.430Z,96703.08
2018-10-16T11:21:23.711Z,96706.27
2018-10-16T11:23:51.145Z,96704.94
2018-10-16T11:26:18.464Z,96702.28
2018-10-16T11:28:45.771Z,96710.66
2018-10-16T11:31:13.809Z,96703.44
2018-10-16T11:33:41.308Z,96707.50
2018-10-16T11:36:09.678Z,96706.78
2018-10-16T11:38:37.381Z,96699.77
2018-10-16T11:41:04.906Z,96703.82
2018-10-16T11:43:32.230Z,96704.98
2018-10-16T11:45:59.460Z,96704.30
2018-10-16T11:48:26.770Z,96699.58
2018-10-16T11:50:54.040Z,96704.79
2018-10-16T11:53:21.375Z,96700.66
2018-10-16T11:55:48.584Z,96706.36
2018-10-16T11:58:15.855Z,96709.28
2018-10-16T12:00:43.106Z,96705.05
2018-10-16T12:03:10.391Z,96702.57
2018-10-16T12:05:37.647Z,96703.91
2018-10-16T12:08:05.098Z,96707.86
2018-10-16T12:10:32.423Z,96697.11
2018-10-16T12:12:59.766Z,96691.52
2018-10-16T12:15:26.964Z,96693.34
2018-10-16T12:18:04.082Z,96694.20
2018-10-16T12:20:36.010Z,96694.61
2018-10-16T12:23:03.354Z,96690.19
2018-10-16T12:25:30.697Z,96692.84
2018-10-16T12:27:58.023Z,96695.52
2018-10-16T12:30:25.315Z,96692.25
2018-10-16T12:32:52.657Z,96693.30
2018-10-16T12:35:19.859Z,96683.36
2018-10-16T12:37:47.216Z,96687.58
2018-10-16T12:40:14.647Z,96687.22
2018-10-16T12:42:42.033Z,96689.73
2018-10-16T12:45:09.385Z,96688.76
2018-10-16T12:47:36.758Z,96688.08
2018-10-16T12:50:04.261Z,96685.99
2018-10-16T12:52:31.746Z,96685.41
2018-10-16T12:54:59.043Z,96685.23
2018-10-16T12:57:26.454Z,96692.22
2018-10-16T12:59:53.905Z,96685.61
2018-10-16T13:02:21.174Z,96691.72
2018-10-16T13:04:48.470Z,96690.42
2018-10-16T13:07:24.201Z,96684.41
2018-10-16T13:09:51.529Z,96685.77
2018-10-16T13:12:18.896Z,96688.66
2018-10-16T13:14:46.147Z,96688.31
2018-10-16T13:17:13.481Z,96669.72
2018-10-16T13:19:40.836Z,96687.23
2018-10-16T13:22:08.252Z,96690.83
2018-10-16T13:24:35.674Z,96690.52
2018-10-16T13:27:03.092Z,96690.98
2018-10-16T13:29:30.795Z,96695.04
2018-10-16T13:32:00.192Z,96688.73
2018-10-16T13:34:27.489Z,96692.66
2018-10-16T13:36:54.876Z,96699.70
2018-10-16T13:39:22.089Z,96690.84
2018-10-16T13:41:49.563Z,96686.52
2018-10-16T13:44:16.850Z,96690.25
2018-10-16T13:46:44.133Z,96687.12
2018-10-16T13:49:11.420Z,96682.27
2018-10-16T13:51:38.701Z,96682.75
2018-10-16T13:54:06.199Z,96691.31
2018-10-16T13:56:33.548Z,96687.43
2018-10-16T13:59:00.828Z,96685.06
2018-10-16T14:01:28.211Z,96686.92
2018-10-16T14:03:55.786Z,96683.86
2018-10-16T14:06:22.947Z,96684.03
2018-10-16T14:08:50.229Z,96684.72
2018-10-16T14:11:17.607Z,96687.74
2018-10-16T14:13:44.879Z,96688.81
2018-10-16T14:16:12.254Z,96689.05
2018-10-16T14:18:39.526Z,96681.87
2018-10-16T14:21:06.783Z,96682.12
2018-10-16T14:23:34.079Z,96681.51
2018-10-16T14:26:01.354Z,96686.13
2018-10-16T14:28:28.723Z,96692.19
2018-10-16T14:30:56.028Z,96692.42
2018-10-16T14:33:23.294Z,96683.30
2018-10-16T14:35:50.608Z,96690.45
2018-10-16T14:38:17.936Z,96691.59
2018-10-16T14:40:47.163Z,96692.78
2018-10-16T14:43:14.444Z,96689.56
2018-10-16T14:45:41.662Z,96694.30
2018-10-16T14:48:09.284Z,96693.92
2018-10-16T14:52:01.025Z,96683.56
2018-10-16T14:54:28.323Z,96690.80
2018-10-16T14:56:55.847Z,96692.94
2018-10-16T14:59:23.168Z,96687.02
2018-10-16T15:01:50.521Z,96694.70
2018-10-16T15:04:17.815Z,96694.28
2018-10-16T15:06:45.161Z,96693.33
2018-10-16T15:09:12.473Z,96686.88
2018-10-16T15:11:39.752Z,96690.70
2018-10-16T15:14:07.292Z,96686.67
2018-10-16T15:16:34.545Z,96684.10
2018-10-16T15:19:01.817Z,96682.70
2018-10-16T15:21:29.069Z,96688.40
2018-10-16T15:23:56.333Z,96686.04
2018-10-16T15:26:23.647Z,96690.22
2018-10-16T15:28:50.965Z,96690.91
2018-10-16T15:31:18.246Z,96667.23
2018-10-16T15:33:45.804Z,96691.88
2018-10-16T15:36:13.300Z,96689.19
2018-10-16T15:38:40.514Z,96694.03
2018-10-16T15:41:07.915Z,96688.91
2018-10-16T15:43:35.263Z,96693.73
2018-10-16T15:46:02.581Z,96693.63
2018-10-16T15:48:29.783Z,96694.83
2018-10-16T15:50:57.117Z,96689.53
2018-10-16T15:53:24.429Z,96698.64
2018-10-16T15:55:51.704Z,96697.41
2018-10-16T15:58:18.998Z,96695.34
2018-10-16T16:00:46.254Z,96699.55
2018-10-16T16:03:13.537Z,96699.91
2018-10-16T16:05:40.805Z,96702.92
2018-10-16T16:08:08.139Z,96696.86
2018-10-16T16:10:35.459Z,96700.22
2018-10-16T16:13:08.743Z,96703.00
2018-10-16T16:15:36.256Z,96704.97
2018-10-16T16:18:03.954Z,96713.42
2018-10-16T16:20:31.225Z,96716.60
2018-10-16T16:22:58.638Z,96719.02
2018-10-16T16:25:25.903Z,96714.50
2018-10-16T16:27:53.239Z,96716.53
2018-10-16T16:30:20.478Z,96718.33
2018-10-16T16:32:47.753Z,96719.38
2018-10-16T16:35:15.094Z,96724.08
2018-10-16T16:37:42.428Z,96720.53
2018-10-16T16:40:11.226Z,96724.36
2018-10-16T16:42:38.332Z,96723.22
2018-10-16T16:45:06.433Z,96724.69
2018-10-16T16:47:33.732Z,96725.80
2018-10-16T16:50:01.172Z,96721.80
2018-10-16T16:52:28.574Z,96727.23
2018-10-16T16:54:56.013Z,96730.31
2018-10-16T16:57:24.935Z,96728.94
2018-10-16T16:59:52.542Z,96731.34
2018-10-16T17:02:19.846Z,96729.09
2018-10-16T17:04:47.257Z,96731.63
2018-10-16T17:07:14.542Z,96733.74
2018-10-16T17:09:41.888Z,96733.51
2018-10-16T17:12:09.254Z,96742.52
2018-10-16T17:14:36.539Z,96747.20
2018-10-16T17:17:03.827Z,96742.53
2018-10-16T17:19:31.141Z,96751.39
2018-10-16T17:21:58.422Z,96750.39
2018-10-16T17:24:25.773Z,96755.80
2018-10-16T17:26:53.232Z,96759.98
2018-10-16T17:29:20.615Z,96765.83
2018-10-16T17:31:47.906Z,96772.62
2018-10-16T17:34:15.409Z,96765.55
2018-10-16T17:36:42.691Z,96769.79
2018-10-16T17:39:10.928Z,96772.12
2018-10-16T17:41:38.232Z,96764.13
2018-10-16T17:44:06.122Z,96775.41
2018-10-16T17:46:33.453Z,96770.19
2018-10-16T17:49:00.795Z,96772.97
2018-10-16T17:51:28.211Z,96775.23
2018-10-16T17:53:55.565Z,96778.16
2018-10-16T17:57:47.533Z,96777.27
2018-10-16T18:00:16.057Z,96784.34
2018-10-16T18:02:43.840Z,96782.69
2018-10-16T18:05:11.557Z,96792.22
2018-10-16T18:07:38.841Z,96798.05
2018-10-16T18:10:06.751Z,96800.72
2018-10-16T18:12:34.308Z,96803.36
2018-10-16T18:15:01.671Z,96807.09
2018-10-16T18:17:29.513Z,96807.70
2018-10-16T18:19:56.780Z,96807.27
2018-10-16T18:22:24.068Z,96808.28
2018-10-16T18:24:51.463Z,96807.03
2018-10-16T18:27:18.780Z,96807.98
2018-10-16T18:29:46.104Z,96808.02
2018-10-16T18:32:13.508Z,96807.67
2018-10-16T18:34:40.822Z,96802.69
2018-10-16T18:37:08.127Z,96805.38
2018-10-16T18:39:35.524Z,96807.86
2018-10-16T18:42:02.879Z,96805.88
2018-10-16T18:44:30.185Z,96805.03
2018-10-16T18:46:57.525Z,96795.72
2018-10-16T18:49:24.974Z,96803.45
2018-10-16T18:51:52.314Z,96804.31
2018-10-16T18:54:19.609Z,96795.78
2018-10-16T18:56:47.006Z,96801.69
2018-10-16T18:59:14.317Z,96803.66
2018-10-16T19:01:42.002Z,96809.64
2018-10-16T19:04:09.704Z,96806.61
2018-10-16T19:06:37.239Z,96806.98
2018-10-16T19:09:07.405Z,96813.87
2018-10-16T19:11:34.676Z,96812.25
2018-10-16T19:14:02.076Z,96816.42
2018-10-16T19:16:29.329Z,96811.08
2018-10-16T19:18:56.670Z,96812.28
2018-10-16T19:21:23.991Z,96804.16
2018-10-16T19:23:51.279Z,96810.93
2018-10-16T19:26:18.512Z,96814.33
2018-10-16T19:28:45.852Z,96809.19
2018-10-16T19:31:13.279Z,96819.06
2018-10-16T19:33:40.605Z,96816.92
2018-10-16T19:36:08.686Z,96831.30
2018-10-16T19:38:35.967Z,96822.33
2018-10-16T19:41:03.309Z,96819.95
2018-10-16T19:43:30.576Z,96822.84
2018-10-16T19:45:58.342Z,96822.98
2018-10-16T19:48:25.647Z,96822.02
2018-10-16T19:50:53.007Z,96823.92
2018-10-16T19:53:20.276Z,96819.62
2018-10-16T19:55:47.663Z,96827.14
2018-10-16T19:58:14.923Z,96827.52
2018-10-16T20:00:42.308Z,96820.11
2018-10-16T20:03:09.730Z,96808.20
2018-10-16T20:05:37.016Z,96828.11
2018-10-16T20:08:04.398Z,96824.08
2018-10-16T20:10:31.805Z,96816.69
2018-10-16T20:12:59.234Z,96823.47
2018-10-16T20:15:26.607Z,96829.58
2018-10-16T20:17:53.899Z,96828.49
2018-10-16T20:20:21.955Z,96824.68
2018-10-16T20:22:49.216Z,96825.39
2018-10-16T20:25:16.912Z,96822.90
2018-10-16T20:27:44.108Z,96803.70
2018-10-16T20:30:11.719Z,96827.30
2018-10-16T20:32:39.454Z,96823.13
2018-10-16T20:35:06.794Z,96825.47
2018-10-16T20:37:34.102Z,96826.92
2018-10-16T20:40:01.437Z,96830.12
2018-10-16T20:42:28.887Z,96832.84
2018-10-16T20:44:56.984Z,96828.45
2018-10-16T20:47:24.336Z,96833.45
2018-10-16T20:49:51.650Z,96832.00
2018-10-16T20:52:18.896Z,96835.01
2018-10-16T20:54:46.422Z,96830.83
2018-10-16T20:57:13.727Z,96834.02
2018-10-16T20:59:42.005Z,96834.86
2018-10-16T21:02:09.328Z,96826.60
2018-10-16T21:04:36.638Z,96833.66
2018-10-16T21:07:04.233Z,96828.27
2018-10-16T21:09:31.366Z,96831.98
2018-10-16T21:11:58.691Z,96831.42
2018-10-16T21:14:25.977Z,96832.38
2018-10-16T21:16:53.302Z,96832.22
2018-10-16T21:19:20.657Z,96832.11
2018-10-16T21:21:47.976Z,96834.73
2018-10-16T21:24:15.194Z,96833.42
2018-10-16T21:26:42.518Z,96832.67
2018-10-16T21:29:09.793Z,96826.30
2018-10-16T21:31:37.092Z,96826.33
2018-10-16T21:34:04.619Z,96830.30
2018-10-16T21:36:31.906Z,96831.12
2018-10-16T21:38:59.274Z,96833.13
2018-10-16T21:41:26.478Z,96832.07
2018-10-16T21:43:54.205Z,96830.05
2018-10-16T21:46:21.857Z,96825.32
2018-10-16T21:48:49.127Z,96826.94
2018-10-16T21:51:16.399Z,96821.83
2018-10-16T21:53:43.659Z,96823.31
2018-10-16T21:56:10.948Z,96817.18
2018-10-16T21:58:38.226Z,96822.05
2018-10-16T22:01:09.714Z,96820.03
2018-10-16T22:03:37.081Z,96816.33
2018-10-16T22:06:04.498Z,96816.59
2018-10-16T22:08:31.797Z,96815.64
2018-10-16T22:10:59.279Z,96812.19
2018-10-16T22:13:26.556Z,96805.62
2018-10-16T22:15:53.844Z,96807.72
2018-10-16T22:18:21.109Z,96807.42
2018-10-16T22:20:48.414Z,96813.59
2018-10-16T22:23:15.804Z,96808.73
2018-10-16T22:25:43.090Z,96809.84
2018-10-16T22:29:13.157Z,96812.33
2018-10-16T22:31:40.298Z,96810.56
2018-10-16T22:34:07.632Z,96814.02
2018-10-16T22:36:34.959Z,96816.41
2018-10-16T22:39:02.266Z,96812.75
2018-10-16T22:41:29.590Z,96819.88
2018-10-16T22:43:56.913Z,96817.27
2018-10-16T22:46:24.248Z,96817.20
2018-10-16T22:48:51.508Z,96822.75
2018-10-16T22:51:18.782Z,96822.56
2018-10-16T22:53:45.996Z,96824.06
2018-10-16T22:56:13.229Z,96824.29
2018-10-16T22:58:40.555Z,96815.00
2018-10-16T23:01:07.922Z,96822.39
2018-10-16T23:03:35.247Z,96823.24
2018-10-16T23:06:02.574Z,96821.05
2018-10-16T23:08:29.832Z,96817.81
2018-10-16T23:10:57.120Z,96822.37
2018-10-16T23:13:24.544Z,96818.06
2018-10-16T23:15:51.782Z,96817.64
2018-10-16T23:18:19.080Z,96817.44
2018-10-16T23:20:46.341Z,96824.57
2018-10-16T23:23:13.686Z,96789.39
2018-10-16T23:25:40.972Z,96815.87
2018-10-16T23:28:08.322Z,96815.20
2018-10-16T23:30:35.604Z,96818.93
2018-10-16T23:33:02.851Z,96818.03
2018-10-16T23:35:30.068Z,96816.56
2018-10-16T23:37:57.256Z,96814.08
2018-10-16T23:40:24.538Z,96811.65
2018-10-16T23:42:51.811Z,96810.47
2018-10-16T23:45:19.093Z,96799.84
2018-10-16T23:47:46.523Z,96808.45
2018-10-16T23:50:13.810Z,96815.70
2018-10-16T23:52:41.110Z,96817.50
2018-10-16T23:55:09.174Z,96811.65
2018-10-16T23:57:36.500Z,96814.70
